Main page
METAR-TAF:

METAR-TAF

Airports :

Radom Airport

Radom, Poland

latitude: 51-23-21N, longitude: 21-12-49E, elevation: 186 m

Current weather observation

The report was made 38 minutes ago, at 16:00 UTC
Wind 6 kt from the South/Southeast, varying between Southeast and South
Temperature 24°C
Humidity 44%
Pressure 1011 hPa
Visibility 10 km or more
no clouds below 1500 m and no cumulonimbus

METAR: EPRA 151600Z 16006KT 130V190 CAVOK 24/11 Q1011

Time: 18:38 (16:38 UTC)

Forecast

The report was made 2 hours and 8 minutes ago, at 14:30 UTC
Forecast valid from 15 at 15 UTC to 15 at 24 UTC
Wind 10 kt from the South
Visibility 10 km or more
no clouds below 1500 m and no cumulonimbus

TAF: EPRA 151430Z 1515/1524 17010KT CAVOK

Weather observations and forecasts of more than 4000 airports (METAR and TAF reports).

The available stations are represented by yellow and red dots on the map.

Hover mouse over dot to see the name of the station.

Then click to see weather observations and forecasts.

To change the map : click on the green buttons with a black cross to zoom in, on the green button with a dash to zoom out, or on the green arrows for adjacent maps.


METAR-TAF: